createdAt,value
2019-05-30T00:00:57.867Z,2.98
2019-05-30T00:15:50.895Z,3.40
2019-05-30T00:30:50.994Z,2.87
2019-05-30T00:45:50.844Z,2.80
2019-05-30T01:00:50.954Z,3.35
2019-05-30T01:15:54.174Z,3.15
2019-05-30T01:31:02.965Z,2.90
2019-05-30T01:45:51.125Z,2.80
2019-05-30T02:00:51.121Z,2.85
2019-05-30T02:15:51.565Z,3.50
2019-05-30T02:30:52.964Z,2.92
2019-05-30T02:45:51.433Z,3.87
2019-05-30T03:00:54.407Z,3.30
2019-05-30T03:15:56.822Z,3.00
2019-05-30T03:30:50.742Z,3.20
2019-05-30T03:45:51.019Z,3.58
2019-05-30T04:15:51.156Z,2.60
2019-05-30T04:31:00.090Z,3.50
2019-05-30T04:45:54.479Z,2.80
2019-05-30T05:00:50.907Z,2.50
2019-05-30T05:15:53.292Z,2.40
2019-05-30T05:30:51.371Z,2.72
2019-05-30T05:45:52.522Z,4.20
2019-05-30T06:00:54.446Z,3.07
2019-05-30T06:15:55.593Z,3.10
2019-05-30T06:30:50.683Z,4.47
2019-05-30T06:45:53.531Z,4.53
2019-05-30T07:00:50.654Z,4.67
2019-05-30T07:15:50.923Z,3.67
2019-05-30T07:30:50.829Z,2.50
2019-05-30T07:45:58.254Z,2.77
2019-05-30T08:00:56.938Z,2.37
2019-05-30T08:15:51.242Z,3.80
2019-05-30T08:30:51.618Z,5.97
2019-05-30T08:45:52.154Z,3.10
2019-05-30T09:00:57.131Z,2.60
2019-05-30T09:15:51.554Z,3.00
2019-05-30T09:30:51.510Z,2.70
2019-05-30T09:45:51.509Z,3.20
2019-05-30T10:00:52.305Z,3.40
2019-05-30T10:15:50.746Z,3.10
2019-05-30T10:30:57.778Z,3.40
2019-05-30T10:45:51.604Z,2.87
2019-05-30T11:00:58.193Z,3.20
2019-05-30T11:15:51.660Z,2.75
2019-05-30T11:30:52.790Z,3.55
2019-05-30T11:45:51.658Z,3.25
2019-05-30T12:00:52.945Z,3.52
2019-05-30T12:15:51.452Z,3.55
2019-05-30T12:30:56.871Z,3.90
2019-05-30T12:45:54.927Z,5.20
2019-05-30T13:00:51.298Z,3.47
2019-05-30T13:15:50.711Z,3.20
2019-05-30T13:30:50.750Z,2.90
2019-05-30T13:45:56.466Z,3.40
2019-05-30T14:00:50.602Z,3.00
2019-05-30T14:15:50.967Z,2.90
2019-05-30T14:30:53.949Z,3.92
2019-05-30T14:45:50.916Z,3.00
2019-05-30T15:00:54.578Z,2.95
2019-05-30T15:15:51.170Z,3.65
2019-05-30T15:30:53.162Z,3.40
2019-05-30T15:45:51.126Z,3.02
2019-05-30T16:00:57.178Z,3.70
2019-05-30T16:15:50.582Z,4.72
2019-05-30T16:30:52.512Z,4.15
2019-05-30T16:45:50.558Z,3.65
2019-05-30T17:00:50.769Z,3.67
2019-05-30T17:15:56.712Z,4.50
2019-05-30T17:30:50.905Z,4.10
2019-05-30T17:45:50.760Z,10.40
2019-05-30T18:00:50.696Z,5.80
2019-05-30T18:15:58.123Z,4.53
2019-05-30T18:30:51.071Z,6.20
2019-05-30T18:45:54.217Z,4.50
2019-05-30T19:01:00.098Z,5.15
2019-05-30T19:15:51.399Z,5.10
2019-05-30T19:30:51.488Z,5.28
2019-05-30T19:45:57.376Z,5.12
2019-05-30T20:00:58.490Z,4.60
2019-05-30T21:00:50.575Z,9.88
2019-05-30T21:15:50.549Z,7.80
2019-05-30T21:30:50.415Z,5.40
2019-05-30T21:45:50.480Z,5.75
2019-05-30T22:15:52.175Z,6.30
2019-05-30T22:30:51.246Z,7.33
2019-05-30T22:45:52.470Z,6.60
2019-05-30T23:00:57.205Z,7.20
2019-05-30T23:15:52.750Z,7.05
2019-05-30T23:30:51.877Z,7.12
2019-05-30T23:45:51.379Z,7.83
